CN-0053 weather

Baihe Ning Ming Air Base
Guangxi Autonomous Region, China

Public forecast

Using degrees Celsius for public forecast. Weather courtesy of forecast.io.

Closest aviation weather report (METAR) to Baihe Ning Ming Air Base

Closest report is Nanning Wuxu Airport, 65.1 nm (120.5 km) ENE. Retrieved 2020/05/29 19:00 UTC (46 minutes ago):

ZGNN 291900Z 36002MPS CAVOK 25/24 Q1008 NOSIG

Closest aviation forecast (TAF) to Baihe Ning Ming Air Base

Closest forecast is Nanning Wuxu Airport, 65.1 nm (120.5 km) ENE. Retrieved 2020/05/29 18:00 UTC (2 hours ago):

TAF ZGNN 291506Z 2918/3018 17003MPS 3000 BR SCT030 TX33/3007Z TN25/2922Z